METAR Data
IDs: Format: Raw Decoded Include TAF

Data at: 1556 UTC 18 Aug 2019

PFWS 181256Z AUTO 01014KT 10SM CLR 11/08 A3022 RMK AO2 SLP239 T01110083 PWINO
PFWS 181156Z AUTO 01013G17KT 10SM CLR 12/08 A3023 RMK AO2 SLP241 T01170083 10167 20111 56013 PWINO
PFWS 181056Z AUTO 36009KT 10SM CLR 12/08 A3024 RMK AO2 SLP245 T01170083 PWINO
PFWS 180956Z AUTO 36010KT 10SM CLR 12/08 A3025 RMK AO2 SLP249 T01220083 PWINO
PFWS 180856Z AUTO 36007KT 10SM CLR 13/08 A3026 RMK AO2 SLP254 T01330083 402000133 58004 PWINO
PFWS 180814Z AUTO VRB06G15KT 10SM FEW028 15/08 A3028 RMK AO2 PWINO
PFWS 180756Z AUTO 01007KT 10SM BKN028 14/08 A3028 RMK AO2 SLP259 T01440083 PWINO
PFWS 180739Z AUTO 01011KT 10SM BKN028 BKN035 15/08 A3028 RMK AO2 PWINO
PFWS 180556Z AUTO 35012KT 10SM CLR 16/10 A3028 RMK AO2 SLP258 T01610100 10200 20161 58007 PWINO
PFWS 180456Z AUTO 36011KT 10SM CLR 18/09 A3028 RMK AO2 SLP260 T01830094 PWINO
PFWS 180356Z AUTO 01014KT 10SM CLR 19/08 A3030 RMK AO2 SLP264 T01890083 PWINO
PFWS 180256Z AUTO 36016G22KT 10SM CLR 19/08 A3030 RMK AO2 SLP265 T01940083 58012 PWINO
PFWS 180156Z AUTO 35013G20KT 10SM CLR 19/08 A3031 RMK AO2 SLP269 T01940078 PWINO
PFWS 180056Z AUTO 35012KT 10SM CLR 19/07 A3032 RMK AO2 SLP273 T01940072 PWINO
PFWS 172356Z AUTO 01013KT 10SM CLR 19/08 A3033 RMK AO2 SLP277 T01940078 10194 20150 58012 PWINO
PFWS 172256Z AUTO 01014KT 10SM CLR 18/08 A3035 RMK AO2 SLP282 T01830078 PWINO
PFWS 172156Z AUTO 36017G25KT 10SM CLR 18/08 A3036 RMK AO2 SLP287 T01780078 PWINO
PFWS 172056Z AUTO 36013G21KT 10SM CLR 17/10 A3037 RMK AO2 SLP289 T01670100 56008 PWINO
PFWS 171856Z AUTO 36014G19KT 10SM CLR 16/11 A3039 RMK AO2 SLP295 T01610106 PWINO
PFWS 171756Z AUTO 01014G20KT 10SM CLR 16/11 A3039 RMK AO2 SLP297 T01560106 10156 20139 51001 PWINO
PFWS 171656Z AUTO 01013G18KT 10SM BKN055 14/13 A3039 RMK AO2 SLP296 T01440128 PWINO
PFWS 171556Z AUTO 02009KT 10SM OVC044 14/13 A3039 RMK AO2 SLP296 T01390133 PWINO
PFWS 171456Z AUTO 02007KT 10SM BKN046 14/14 A3039 RMK AO2 SLP295 T01390139 50001 PWINO
PFWS 171356Z AUTO 01006KT 10SM OVC048 14/14 A3040 RMK AO2 SLP299 T01440139 PWINO
PFWS 171256Z AUTO 03009KT 10SM OVC046 14/14 A3039 RMK AO2 SLP296 T01440139 PWINO
PFWS 171156Z AUTO 05006KT 10SM OVC050 14/13 A3038 RMK AO2 SLP294 T01390133 10172 20133 50002 PWINO
PFWS 171056Z AUTO 04007KT 10SM CLR 14/13 A3039 RMK AO2 SLP295 T01440133 PWINO
PFWS 170956Z AUTO 05007KT 10SM CLR 15/13 A3038 RMK AO2 SLP294 T01500133 PWINO
PFWS 170856Z AUTO 36006KT 10SM CLR 16/14 A3038 RMK AO2 SLP292 T01610144 402060089 55001 PWINO
PFWS 170756Z AUTO 26005KT 10SM CLR 14/14 A3038 RMK AO2 SLP292 T01440144 PWINO
PFWS 170656Z AUTO 26007KT 10SM CLR 15/15 A3038 RMK AO2 SLP293 T01500150 PWINO
PFWS 170556Z AUTO 25008KT 10SM CLR 17/16 A3038 RMK AO2 SLP293 T01720161 10206 20172 56009 PWINO
PFWS 170456Z AUTO 26010KT 10SM CLR 19/16 A3038 RMK AO2 SLP294 T01890161 PWINO